createdAt,value
2018-10-19T00:02:15.404Z,16.00
2018-10-19T00:05:06.798Z,16.00
2018-10-19T00:07:35.884Z,16.10
2018-10-19T00:10:05.045Z,16.00
2018-10-19T00:12:35.039Z,16.10
2018-10-19T00:15:03.785Z,16.10
2018-10-19T00:17:49.306Z,16.10
2018-10-19T00:23:11.460Z,16.10
2018-10-19T00:25:43.962Z,16.10
2018-10-19T00:28:12.444Z,16.10
2018-10-19T00:30:41.612Z,16.10
2018-10-19T00:33:12.977Z,16.10
2018-10-19T00:35:42.328Z,16.20
2018-10-19T00:38:12.738Z,16.20
2018-10-19T00:40:42.234Z,16.20
2018-10-19T00:43:11.821Z,16.20
2018-10-19T00:45:46.158Z,16.20
2018-10-19T00:48:27.130Z,16.20
2018-10-19T00:50:56.004Z,16.20
2018-10-19T00:53:29.014Z,16.20
2018-10-19T00:55:59.751Z,16.20
2018-10-19T00:58:32.204Z,16.20
2018-10-19T01:01:00.824Z,16.20
2018-10-19T01:03:29.784Z,16.20
2018-10-19T01:05:58.780Z,16.20
2018-10-19T01:08:27.338Z,16.20
2018-10-19T01:10:59.558Z,16.20
2018-10-19T01:13:29.046Z,16.20
2018-10-19T01:15:58.692Z,16.20
2018-10-19T01:18:28.542Z,16.20
2018-10-19T01:20:58.438Z,16.20
2018-10-19T01:23:27.798Z,16.20
2018-10-19T01:25:57.760Z,16.20
2018-10-19T01:28:26.983Z,16.20
2018-10-19T01:30:56.691Z,16.20
2018-10-19T01:33:26.957Z,16.20
2018-10-19T01:35:58.640Z,16.20
2018-10-19T01:38:27.771Z,16.20
2018-10-19T01:40:59.987Z,16.20
2018-10-19T01:43:28.503Z,16.20
2018-10-19T01:45:58.672Z,16.20
2018-10-19T01:48:28.269Z,16.20
2018-10-19T01:53:53.031Z,16.20
2018-10-19T01:56:23.619Z,16.20
2018-10-19T01:58:58.333Z,16.20
2018-10-19T02:01:37.887Z,16.20
2018-10-19T02:04:06.959Z,16.30
2018-10-19T02:06:35.701Z,16.30
2018-10-19T02:09:06.231Z,16.30
2018-10-19T02:11:36.869Z,16.30
2018-10-19T02:14:28.810Z,16.20
2018-10-19T02:17:03.287Z,16.20
2018-10-19T02:19:34.189Z,16.20
2018-10-19T02:22:11.536Z,16.20
2018-10-19T02:24:41.842Z,16.20
2018-10-19T02:27:11.694Z,16.20
2018-10-19T02:29:46.226Z,16.20
2018-10-19T02:32:21.458Z,16.20
2018-10-19T02:37:49.918Z,16.10
2018-10-19T02:40:20.248Z,16.10
2018-10-19T02:42:57.241Z,16.10
2018-10-19T02:45:27.084Z,16.10
2018-10-19T02:47:59.083Z,16.10
2018-10-19T02:50:30.076Z,16.00
2018-10-19T02:53:02.440Z,16.00
2018-10-19T02:55:35.049Z,16.00
2018-10-19T02:58:04.420Z,16.00
2018-10-19T03:00:34.040Z,16.00
2018-10-19T03:03:03.801Z,16.00
2018-10-19T03:05:39.787Z,16.00
2018-10-19T03:08:21.718Z,16.00
2018-10-19T03:10:51.130Z,15.90
2018-10-19T03:13:20.340Z,15.90
2018-10-19T03:15:51.202Z,15.90
2018-10-19T03:18:23.650Z,15.80
2018-10-19T03:20:53.492Z,15.80
2018-10-19T03:23:24.512Z,15.80
2018-10-19T03:26:06.382Z,15.80
2018-10-19T03:28:38.266Z,15.80
2018-10-19T03:31:08.345Z,15.80
2018-10-19T03:33:38.441Z,15.80
2018-10-19T03:36:09.203Z,15.80
2018-10-19T03:38:38.332Z,15.80
2018-10-19T03:41:17.080Z,15.80
2018-10-19T03:43:46.259Z,15.80
2018-10-19T03:46:34.354Z,15.80
2018-10-19T03:49:23.407Z,15.80
2018-10-19T03:51:58.487Z,15.80
2018-10-19T03:54:27.191Z,15.80
2018-10-19T03:56:56.070Z,15.80
2018-10-19T03:59:29.447Z,15.80
2018-10-19T04:01:59.177Z,15.80
2018-10-19T04:04:29.894Z,15.70
2018-10-19T04:07:04.973Z,15.70
2018-10-19T04:09:35.847Z,15.70
2018-10-19T04:12:11.956Z,15.70
2018-10-19T04:14:41.089Z,15.70
2018-10-19T04:17:10.771Z,15.60
2018-10-19T04:19:43.175Z,15.60
2018-10-19T04:22:15.825Z,15.60
2018-10-19T04:24:49.449Z,15.50
2018-10-19T04:27:19.388Z,15.50
2018-10-19T04:29:48.550Z,15.40
2018-10-19T04:32:23.519Z,15.30
2018-10-19T04:34:52.929Z,15.40
2018-10-19T04:43:12.950Z,15.20
2018-10-19T04:45:42.010Z,15.20
2018-10-19T04:48:10.697Z,15.20
2018-10-19T04:50:39.241Z,15.30
2018-10-19T04:53:10.700Z,15.30
2018-10-19T04:55:40.086Z,15.30
2018-10-19T04:58:09.460Z,15.20
2018-10-19T05:00:38.941Z,15.20
2018-10-19T05:03:07.655Z,15.20
2018-10-19T05:05:36.376Z,15.10
2018-10-19T05:08:08.291Z,15.20
2018-10-19T05:10:37.101Z,15.20
2018-10-19T05:13:11.240Z,15.20
2018-10-19T05:15:42.105Z,15.20
2018-10-19T05:18:10.699Z,15.10
2018-10-19T05:20:41.068Z,15.20
2018-10-19T05:23:12.863Z,15.20
2018-10-19T05:25:41.834Z,15.10
2018-10-19T05:28:17.006Z,15.20
2018-10-19T05:30:45.500Z,15.20
2018-10-19T05:33:14.305Z,15.20
2018-10-19T05:35:42.924Z,15.20
2018-10-19T05:38:11.867Z,15.10
2018-10-19T05:40:40.697Z,15.10
2018-10-19T05:43:10.546Z,15.10
2018-10-19T05:45:40.886Z,15.20
2018-10-19T05:48:09.743Z,15.20
2018-10-19T05:50:40.564Z,15.20
2018-10-19T05:53:09.987Z,15.20
2018-10-19T05:55:39.958Z,15.30
2018-10-19T05:58:09.716Z,15.30
2018-10-19T06:00:41.029Z,15.30
2018-10-19T06:03:12.350Z,15.30
2018-10-19T06:05:45.087Z,15.30
2018-10-19T06:08:14.087Z,15.30
2018-10-19T06:10:45.501Z,15.30
2018-10-19T06:13:27.274Z,15.40
2018-10-19T06:16:00.747Z,15.40
2018-10-19T06:18:30.687Z,15.50
2018-10-19T06:20:59.606Z,15.50
2018-10-19T06:23:31.091Z,15.40
2018-10-19T06:26:10.931Z,15.40
2018-10-19T06:28:40.030Z,15.40
2018-10-19T06:31:12.657Z,15.40
2018-10-19T06:33:56.789Z,15.40
2018-10-19T06:36:25.787Z,15.30
2018-10-19T06:38:59.074Z,15.40
2018-10-19T06:44:29.685Z,15.40
2018-10-19T06:49:53.332Z,15.40
2018-10-19T06:55:18.949Z,15.40
2018-10-19T06:57:48.577Z,15.30
2018-10-19T07:00:17.582Z,15.40
2018-10-19T07:02:46.600Z,15.40
2018-10-19T07:05:16.134Z,15.40
2018-10-19T07:07:45.536Z,15.40
2018-10-19T07:10:19.262Z,15.40
2018-10-19T07:12:52.006Z,15.40
2018-10-19T07:15:21.184Z,15.30
2018-10-19T07:17:50.090Z,15.30
2018-10-19T07:20:20.231Z,15.30
2018-10-19T07:22:55.972Z,15.30
2018-10-19T07:25:25.698Z,15.30
2018-10-19T07:27:56.974Z,15.20
2018-10-19T07:30:26.837Z,15.20
2018-10-19T07:32:57.129Z,15.10
2018-10-19T07:35:27.100Z,15.00
2018-10-19T07:37:59.676Z,15.00
2018-10-19T07:40:35.833Z,15.00
2018-10-19T07:46:08.541Z,14.90
2018-10-19T07:48:44.377Z,14.80
2018-10-19T07:51:16.268Z,14.70
2018-10-19T07:53:47.816Z,14.70
2018-10-19T07:56:39.412Z,14.60
2018-10-19T07:59:17.494Z,14.60
2018-10-19T08:01:53.406Z,14.60
2018-10-19T08:04:22.360Z,14.50
2018-10-19T08:06:50.942Z,14.50
2018-10-19T08:09:23.142Z,14.50
2018-10-19T08:11:59.805Z,14.50
2018-10-19T11:23:00.814Z,15.50
2018-10-19T11:25:54.394Z,15.50
2018-10-19T11:28:43.132Z,15.60
2018-10-19T11:31:31.308Z,15.50
2018-10-19T11:34:15.134Z,15.60
2018-10-19T12:06:49.644Z,15.60
2018-10-19T13:12:46.316Z,15.30
2018-10-19T13:43:38.335Z,15.90
2018-10-19T13:49:41.411Z,15.90
2018-10-19T13:54:51.825Z,16.00
2018-10-19T13:57:52.925Z,16.00
2018-10-19T15:04:04.269Z,15.60
2018-10-19T15:06:36.026Z,15.50
2018-10-19T15:09:08.081Z,15.50
2018-10-19T15:11:37.202Z,15.50
2018-10-19T15:14:13.923Z,15.50
2018-10-19T15:16:46.733Z,15.50
2018-10-19T15:19:16.575Z,15.40
2018-10-19T15:21:48.857Z,15.40
2018-10-19T15:24:17.980Z,15.40
2018-10-19T15:26:48.120Z,15.40
2018-10-19T15:29:17.755Z,15.40
2018-10-19T15:31:50.632Z,15.40
2018-10-19T15:58:10.845Z,15.40
2018-10-19T16:08:55.571Z,15.50
2018-10-19T16:11:26.630Z,15.50
2018-10-19T16:14:09.201Z,15.50
2018-10-19T16:16:48.445Z,15.50
2018-10-19T16:19:22.100Z,15.50
2018-10-19T16:21:52.401Z,15.50
2018-10-19T16:24:21.884Z,15.40
2018-10-19T16:26:50.867Z,15.40
2018-10-19T16:29:24.901Z,15.40
2018-10-19T16:31:56.689Z,15.40
2018-10-19T16:34:35.341Z,15.40
2018-10-19T16:37:27.590Z,15.40
2018-10-19T16:39:59.525Z,15.40
2018-10-19T16:42:30.221Z,15.30
2018-10-19T16:45:00.699Z,15.40
2018-10-19T16:47:36.099Z,15.30
2018-10-19T16:50:08.527Z,15.40
2018-10-19T16:52:42.681Z,15.40
2018-10-19T16:55:11.938Z,15.30
2018-10-19T16:57:42.303Z,15.40
2018-10-19T17:00:13.439Z,15.40
2018-10-19T17:02:50.974Z,15.40
2018-10-19T17:08:13.344Z,15.40
2018-10-19T17:10:49.695Z,15.30
2018-10-19T17:13:22.344Z,15.30
2018-10-19T17:15:55.223Z,15.30
2018-10-19T17:18:27.280Z,15.30
2018-10-19T17:21:06.622Z,15.30
2018-10-19T17:23:36.306Z,15.30
2018-10-19T17:26:11.608Z,15.30
2018-10-19T17:28:49.273Z,15.30
2018-10-19T17:31:22.825Z,15.20
2018-10-19T17:33:54.333Z,15.30
2018-10-19T17:36:22.905Z,15.30
2018-10-19T17:38:53.847Z,15.20
2018-10-19T17:41:25.616Z,15.30
2018-10-19T17:43:56.884Z,15.20
2018-10-19T17:46:27.031Z,15.20
2018-10-19T17:48:57.991Z,15.20
2018-10-19T17:51:28.978Z,15.20
2018-10-19T17:54:00.209Z,15.20
2018-10-19T17:56:30.329Z,15.20
2018-10-19T17:59:03.511Z,15.20
2018-10-19T18:01:33.737Z,15.20
2018-10-19T18:04:04.363Z,15.20
2018-10-19T18:06:33.876Z,15.20
2018-10-19T18:09:10.261Z,15.20
2018-10-19T18:11:41.515Z,15.20
2018-10-19T18:14:13.692Z,15.20
2018-10-19T18:16:46.643Z,15.20
2018-10-19T18:19:16.620Z,15.20
2018-10-19T18:21:47.179Z,15.20
2018-10-19T18:24:16.653Z,15.20
2018-10-19T18:26:45.903Z,15.20
2018-10-19T18:34:55.037Z,15.20
2018-10-19T18:37:33.869Z,15.20
2018-10-19T18:40:08.090Z,15.20
2018-10-19T18:42:37.117Z,15.20
2018-10-19T18:45:14.167Z,15.20
2018-10-19T18:47:42.805Z,15.10
2018-10-19T18:50:21.675Z,15.10
2018-10-19T18:52:52.490Z,15.10
2018-10-19T18:55:28.345Z,15.10
2018-10-19T18:57:59.547Z,15.10
2018-10-19T19:00:30.181Z,15.10
2018-10-19T19:03:03.696Z,15.10
2018-10-19T19:05:40.369Z,15.00
2018-10-19T19:08:12.864Z,15.00
2018-10-19T19:10:44.785Z,15.00
2018-10-19T19:13:19.928Z,15.00
2018-10-19T19:15:52.326Z,15.00
2018-10-19T19:18:27.656Z,15.00
2018-10-19T19:23:47.682Z,15.00
2018-10-19T19:26:20.136Z,15.00
2018-10-19T19:28:59.686Z,14.90
2018-10-19T19:34:51.645Z,14.90
2018-10-19T19:37:30.177Z,14.90
2018-10-19T19:40:07.655Z,14.90
2018-10-19T19:42:47.770Z,14.90
2018-10-19T19:45:22.028Z,14.90
2018-10-19T19:48:02.157Z,14.90
2018-10-19T19:50:34.671Z,14.90
2018-10-19T19:53:07.299Z,14.90
2018-10-19T19:55:43.197Z,14.90
2018-10-19T19:58:29.200Z,14.90
2018-10-19T20:01:05.570Z,14.90
2018-10-19T20:04:10.920Z,14.90
2018-10-19T20:12:43.204Z,14.90
2018-10-19T20:15:16.285Z,14.90
2018-10-19T20:17:50.808Z,14.80
2018-10-19T20:20:22.803Z,14.80
2018-10-19T20:22:53.808Z,14.80
2018-10-19T20:25:30.029Z,14.80
2018-10-19T20:28:11.311Z,14.80
2018-10-19T20:30:45.738Z,14.80
2018-10-19T20:33:24.161Z,14.80
2018-10-19T20:36:14.243Z,14.80
2018-10-19T20:38:53.090Z,14.80
2018-10-19T20:41:29.983Z,14.80
2018-10-19T20:44:25.865Z,14.70
2018-10-19T20:47:05.707Z,14.80
2018-10-19T20:49:47.915Z,14.70
2018-10-19T20:52:18.299Z,14.70
2018-10-19T20:54:49.401Z,14.60
2018-10-19T20:57:31.361Z,14.60
2018-10-19T21:00:04.881Z,14.60
2018-10-19T21:05:36.420Z,14.60
2018-10-19T21:08:10.109Z,14.50
2018-10-19T21:10:53.223Z,14.50
2018-10-19T21:14:07.546Z,14.60
2018-10-19T21:19:47.285Z,14.60
2018-10-19T21:22:17.206Z,14.60
2018-10-19T21:24:47.362Z,14.60
2018-10-19T21:27:19.671Z,14.60
2018-10-19T21:29:51.821Z,14.60
2018-10-19T21:32:27.426Z,14.60
2018-10-19T21:34:59.421Z,14.60
2018-10-19T21:37:29.566Z,14.60
2018-10-19T21:40:04.064Z,14.60
2018-10-19T21:42:36.349Z,14.60
2018-10-19T21:45:10.532Z,14.50
2018-10-19T21:47:42.990Z,14.50
2018-10-19T21:50:14.130Z,14.50
2018-10-19T21:52:48.460Z,14.50
2018-10-19T21:55:19.636Z,14.50
2018-10-19T21:57:49.494Z,14.40
2018-10-19T22:00:31.223Z,14.50
2018-10-19T22:03:20.494Z,14.50
2018-10-19T22:05:55.978Z,14.50
2018-10-19T22:11:16.154Z,14.50
2018-10-19T22:14:03.211Z,14.50
2018-10-19T22:16:43.437Z,14.50
2018-10-19T22:19:19.048Z,14.50
2018-10-19T22:21:52.415Z,14.50
2018-10-19T22:24:31.365Z,14.50
2018-10-19T22:27:09.781Z,14.50
2018-10-19T22:29:52.216Z,14.50
2018-10-19T22:32:33.194Z,14.50
2018-10-19T22:35:16.858Z,14.50
2018-10-19T22:37:46.585Z,14.50
2018-10-19T22:40:20.957Z,14.50
2018-10-19T22:42:52.643Z,14.50
2018-10-19T22:45:25.728Z,14.50
2018-10-19T22:48:02.938Z,14.50
2018-10-19T22:50:40.596Z,14.50
2018-10-19T22:53:13.127Z,14.50
2018-10-19T22:55:54.782Z,14.40
2018-10-19T22:58:27.700Z,14.40
2018-10-19T23:01:08.216Z,14.40
2018-10-19T23:03:39.987Z,14.40
2018-10-19T23:06:17.378Z,14.40
2018-10-19T23:08:52.991Z,14.30
2018-10-19T23:11:29.878Z,14.30
2018-10-19T23:14:03.516Z,14.30
2018-10-19T23:16:36.854Z,14.30
2018-10-19T23:19:21.429Z,14.30
2018-10-19T23:21:51.911Z,14.30
2018-10-19T23:24:23.435Z,14.30
2018-10-19T23:26:53.975Z,14.20
2018-10-19T23:29:25.872Z,14.20
2018-10-19T23:31:56.283Z,14.20
2018-10-19T23:34:25.845Z,14.20
2018-10-19T23:36:56.435Z,14.10
2018-10-19T23:39:28.389Z,14.10
2018-10-19T23:42:01.533Z,14.10
2018-10-19T23:44:31.391Z,14.10
2018-10-19T23:47:02.996Z,14.00
2018-10-19T23:49:38.453Z,14.00
2018-10-19T23:52:12.356Z,14.00
2018-10-19T23:54:45.024Z,14.00
2018-10-19T23:57:16.841Z,14.00
2018-10-19T23:59:51.742Z,13.90
